メインページ
METAR-TAF:

METAR-TAF

空港 :

ジュネーヴ空港

ジュネーヴ, スイス

緯度: 46-15N, 経度: 006-08E, 海抜: 420m

現時点の気象観測

当レポートは13分前の06:20(UTC)に作成
西/南西の風 7kt
気温 10°C
湿度 76%
気圧 1010 hPa
視程10km以上
高度7000ftの雲は散在している

METAR: LSGG 150620Z 24007KT 9999 SCT070 10/06 Q1010 NOSIG

時間: 07:33 (06:33 UTC)

予報

当レポートは1時間8分前の05:25(UTC)に作成
予報は15日の 06時(UTC)から 16日の 12時(UTC)まで有効
西/南西の風 12kt
視程10km以上
高度7000ftの千切れ雲あり
15日の 15時(UTC)から 15日の 18時(UTC)まで徐々に
変向風 3kt
視程10km以上
1,500メートル以下は雲なし、積乱雲なし
確率 30%
16日の 03時(UTC)から 16日の 06時(UTC)まで
視程: 4500m
浅い霧

TAF: LSGG 150525Z 1506/1612 25012KT 9999 BKN070 TX12/1514Z TN07/1506Z TN02/1606Z BECMG 1515/1518 VRB03KT CAVOK PROB30 1603/1606 4500 MIFG NSC

4,000以上の空港の気象観測と天気予報(METAR報とTAF報)

利用可能な観測所は地図上に黄色い丸と赤い丸で示す。

丸の上にカーソルを重ねると観測所名を参照できる。

次にクリックすると気象観測と天気予報を参照できる。

マップの切り替え:黒色「×」印の緑ボタンをクリックして拡大、「-」印の緑ボタンをクリックして縮小、緑色の三角印をクリックして隣りの地図に切り替え


METAR-TAF: